sensor_id;sensor_type;location;lat;lon;timestamp;pressure;altitude;pressure_sealevel;temperature;humidity
54407;BME280;40313;50.308;30.374;2024-03-23T00:53:02;99195.97;;;26.11;34.58
54407;BME280;40313;50.308;30.374;2024-03-23T00:55:27;99190.03;;;26.16;34.43
54407;BME280;40313;50.308;30.374;2024-03-23T00:57:54;99192.94;;;26.28;34.26
54407;BME280;40313;50.308;30.374;2024-03-23T01:00:20;99183.31;;;26.27;34.60
54407;BME280;40313;50.308;30.374;2024-03-23T01:02:46;99184.28;;;26.19;34.66
54407;BME280;40313;50.308;30.374;2024-03-23T01:05:12;99179.06;;;26.52;34.17
54407;BME280;40313;50.308;30.374;2024-03-23T01:07:38;99170.78;;;26.34;34.30
54407;BME280;40313;50.308;30.374;2024-03-23T01:10:06;99162.03;;;26.12;34.67
54407;BME280;40313;50.308;30.374;2024-03-23T01:12:33;99172.66;;;25.98;34.45
54407;BME280;40313;50.308;30.374;2024-03-23T01:14:58;99169.28;;;25.83;35.11
54407;BME280;40313;50.308;30.374;2024-03-23T01:17:25;99161.06;;;25.84;34.73
54407;BME280;40313;50.308;30.374;2024-03-23T01:19:50;99159.06;;;25.93;34.79
54407;BME280;40313;50.308;30.374;2024-03-23T01:22:17;99159.91;;;25.94;34.82
54407;BME280;40313;50.308;30.374;2024-03-23T01:24:43;99159.09;;;26.00;34.84
54407;BME280;40313;50.308;30.374;2024-03-23T01:27:11;99170.59;;;25.94;35.15
54407;BME280;40313;50.308;30.374;2024-03-23T01:29:36;99157.88;;;25.67;35.19
54407;BME280;40313;50.308;30.374;2024-03-23T01:32:04;99169.00;;;25.71;35.32
54407;BME280;40313;50.308;30.374;2024-03-23T01:34:30;99166.41;;;25.84;35.32
54407;BME280;40313;50.308;30.374;2024-03-23T01:36:56;99139.81;;;25.34;35.58
54407;BME280;40313;50.308;30.374;2024-03-23T01:39:22;99156.28;;;25.38;35.71
54407;BME280;40313;50.308;30.374;2024-03-23T01:41:48;99146.22;;;25.40;35.79
54407;BME280;40313;50.308;30.374;2024-03-23T01:44:16;99151.50;;;25.33;35.81
54407;BME280;40313;50.308;30.374;2024-03-23T01:46:43;99145.63;;;25.45;35.55
54407;BME280;40313;50.308;30.374;2024-03-23T01:49:10;99151.41;;;25.48;36.04
54407;BME280;40313;50.308;30.374;2024-03-23T01:51:37;99149.34;;;25.44;35.79
54407;BME280;40313;50.308;30.374;2024-03-23T01:54:03;99150.38;;;25.21;36.01
54407;BME280;40313;50.308;30.374;2024-03-23T01:56:32;99143.78;;;24.95;36.37
54407;BME280;40313;50.308;30.374;2024-03-23T01:58:58;99138.31;;;25.04;36.19
54407;BME280;40313;50.308;30.374;2024-03-23T02:01:27;99145.06;;;24.99;36.40
54407;BME280;40313;50.308;30.374;2024-03-23T02:03:52;99117.88;;;24.67;37.01
54407;BME280;40313;50.308;30.374;2024-03-23T02:06:19;99137.81;;;24.93;36.68
54407;BME280;40313;50.308;30.374;2024-03-23T02:08:45;99137.31;;;24.83;36.61
54407;BME280;40313;50.308;30.374;2024-03-23T02:11:11;99137.31;;;24.83;36.79
54407;BME280;40313;50.308;30.374;2024-03-23T02:13:37;99131.47;;;24.73;36.71
54407;BME280;40313;50.308;30.374;2024-03-23T02:16:05;99128.41;;;24.76;36.94
54407;BME280;40313;50.308;30.374;2024-03-23T02:18:32;99111.28;;;24.63;37.17
54407;BME280;40313;50.308;30.374;2024-03-23T02:20:59;99104.81;;;24.58;37.29
54407;BME280;40313;50.308;30.374;2024-03-23T02:23:26;99121.19;;;24.70;37.07
54407;BME280;40313;50.308;30.374;2024-03-23T02:25:52;99127.00;;;24.58;37.12
54407;BME280;40313;50.308;30.374;2024-03-23T02:28:18;99120.31;;;24.62;36.96
54407;BME280;40313;50.308;30.374;2024-03-23T02:30:45;99121.41;;;24.53;37.22
54407;BME280;40313;50.308;30.374;2024-03-23T02:33:10;99119.22;;;24.42;37.47
54407;BME280;40313;50.308;30.374;2024-03-23T02:35:37;99114.88;;;24.19;37.74
54407;BME280;40313;50.308;30.374;2024-03-23T02:38:03;99102.22;;;24.21;38.05
54407;BME280;40313;50.308;30.374;2024-03-23T02:40:31;99108.94;;;24.39;37.53
54407;BME280;40313;50.308;30.374;2024-03-23T02:42:56;99074.47;;;24.15;37.39
54407;BME280;40313;50.308;30.374;2024-03-23T02:45:23;99098.22;;;24.32;37.74
54407;BME280;40313;50.308;30.374;2024-03-23T02:47:49;99098.88;;;24.56;37.47
54407;BME280;40313;50.308;30.374;2024-03-23T02:50:17;99094.69;;;24.46;37.33
54407;BME280;40313;50.308;30.374;2024-03-23T02:52:43;99093.72;;;24.54;37.50
54407;BME280;40313;50.308;30.374;2024-03-23T02:55:09;99089.41;;;24.31;37.68
54407;BME280;40313;50.308;30.374;2024-03-23T02:57:36;99090.09;;;24.40;37.75
54407;BME280;40313;50.308;30.374;2024-03-23T03:00:04;99074.38;;;24.09;37.70
54407;BME280;40313;50.308;30.374;2024-03-23T03:02:30;99089.66;;;24.00;38.08
54407;BME280;40313;50.308;30.374;2024-03-23T03:04:56;99082.59;;;24.29;37.93
54407;BME280;40313;50.308;30.374;2024-03-23T03:07:22;99086.34;;;24.35;37.87
54407;BME280;40313;50.308;30.374;2024-03-23T03:09:48;99074.78;;;24.27;38.01
54407;BME280;40313;50.308;30.374;2024-03-23T03:12:14;99073.13;;;24.26;37.91
54407;BME280;40313;50.308;30.374;2024-03-23T03:14:42;99080.75;;;24.08;38.20
54407;BME280;40313;50.308;30.374;2024-03-23T03:17:07;99067.94;;;23.52;38.51
54407;BME280;40313;50.308;30.374;2024-03-23T03:19:34;99067.91;;;23.96;37.91
54407;BME280;40313;50.308;30.374;2024-03-23T03:21:59;99066.88;;;23.97;38.23
54407;BME280;40313;50.308;30.374;2024-03-23T03:24:26;99071.34;;;24.12;38.17
54407;BME280;40313;50.308;30.374;2024-03-23T03:26:51;99066.19;;;24.25;37.70
54407;BME280;40313;50.308;30.374;2024-03-23T03:29:18;99067.97;;;24.03;38.03
54407;BME280;40313;50.308;30.374;2024-03-23T03:31:45;99067.66;;;23.91;38.41
54407;BME280;40313;50.308;30.374;2024-03-23T03:34:11;99061.03;;;23.87;38.54
54407;BME280;40313;50.308;30.374;2024-03-23T03:36:37;99055.22;;;23.98;38.41
54407;BME280;40313;50.308;30.374;2024-03-23T03:39:03;99057.00;;;23.91;38.22
54407;BME280;40313;50.308;30.374;2024-03-23T03:41:31;99054.44;;;23.68;38.90
54407;BME280;40313;50.308;30.374;2024-03-23T03:43:58;99049.38;;;23.88;38.32
54407;BME280;40313;50.308;30.374;2024-03-23T03:46:26;99052.59;;;23.69;38.90
54407;BME280;40313;50.308;30.374;2024-03-23T03:48:55;99055.00;;;23.63;39.05
54407;BME280;40313;50.308;30.374;2024-03-23T03:51:20;99051.03;;;23.89;38.60
54407;BME280;40313;50.308;30.374;2024-03-23T03:53:47;99048.88;;;23.85;38.92
54407;BME280;40313;50.308;30.374;2024-03-23T03:56:13;99045.69;;;23.74;38.96
54407;BME280;40313;50.308;30.374;2024-03-23T03:58:39;99038.47;;;23.53;38.91
54407;BME280;40313;50.308;30.374;2024-03-23T04:01:05;99042.28;;;23.95;38.70
54407;BME280;40313;50.308;30.374;2024-03-23T04:03:31;99040.69;;;23.86;39.07
54407;BME280;40313;50.308;30.374;2024-03-23T04:05:58;99036.59;;;23.84;38.76
54407;BME280;40313;50.308;30.374;2024-03-23T04:08:25;99044.88;;;23.89;38.91
54407;BME280;40313;50.308;30.374;2024-03-23T04:10:50;99039.91;;;24.22;38.75
54407;BME280;40313;50.308;30.374;2024-03-23T04:13:17;99039.94;;;24.07;38.57
54407;BME280;40313;50.308;30.374;2024-03-23T04:15:42;99035.78;;;24.20;38.62
54407;BME280;40313;50.308;30.374;2024-03-23T04:18:09;99027.13;;;24.18;38.57
54407;BME280;40313;50.308;30.374;2024-03-23T04:20:34;99027.84;;;24.48;38.47
54407;BME280;40313;50.308;30.374;2024-03-23T04:23:02;99027.47;;;24.29;38.59
54407;BME280;40313;50.308;30.374;2024-03-23T04:25:28;99032.22;;;24.34;38.47
54407;BME280;40313;50.308;30.374;2024-03-23T04:27:54;99020.03;;;24.25;38.54
54407;BME280;40313;50.308;30.374;2024-03-23T04:30:20;99029.47;;;24.49;38.42
54407;BME280;40313;50.308;30.374;2024-03-23T04:32:48;99020.69;;;24.27;38.68
54407;BME280;40313;50.308;30.374;2024-03-23T04:35:15;99023.25;;;24.63;38.08
54407;BME280;40313;50.308;30.374;2024-03-23T04:37:41;99018.72;;;24.86;38.48
54407;BME280;40313;50.308;30.374;2024-03-23T04:40:10;99019.44;;;24.73;38.56
54407;BME280;40313;50.308;30.374;2024-03-23T04:42:37;99022.13;;;25.08;38.18
54407;BME280;40313;50.308;30.374;2024-03-23T04:45:04;99021.78;;;25.11;38.11
54407;BME280;40313;50.308;30.374;2024-03-23T04:47:31;99019.75;;;25.19;38.27
54407;BME280;40313;50.308;30.374;2024-03-23T04:49:58;99016.59;;;25.38;38.09
54407;BME280;40313;50.308;30.374;2024-03-23T04:52:25;99005.63;;;25.67;37.38
54407;BME280;40313;50.308;30.374;2024-03-23T04:54:51;99008.47;;;25.59;37.66
54407;BME280;40313;50.308;30.374;2024-03-23T04:57:19;99009.91;;;25.55;37.45
54407;BME280;40313;50.308;30.374;2024-03-23T04:59:46;99006.94;;;25.98;37.64
54407;BME280;40313;50.308;30.374;2024-03-23T05:02:12;99010.91;;;26.02;37.66
54407;BME280;40313;50.308;30.374;2024-03-23T05:04:38;99004.94;;;26.07;37.19
54407;BME280;40313;50.308;30.374;2024-03-23T05:07:05;99006.38;;;26.10;37.25
54407;BME280;40313;50.308;30.374;2024-03-23T05:09:32;99001.47;;;26.07;37.28
54407;BME280;40313;50.308;30.374;2024-03-23T05:11:58;99005.19;;;26.32;37.17
54407;BME280;40313;50.308;30.374;2024-03-23T05:14:27;99004.78;;;26.55;37.26
54407;BME280;40313;50.308;30.374;2024-03-23T05:16:52;99006.44;;;26.36;37.32
54407;BME280;40313;50.308;30.374;2024-03-23T05:19:19;99000.88;;;26.58;37.17
54407;BME280;40313;50.308;30.374;2024-03-23T05:21:44;99006.00;;;26.66;36.84
54407;BME280;40313;50.308;30.374;2024-03-23T05:24:12;98994.06;;;26.49;37.12
54407;BME280;40313;50.308;30.374;2024-03-23T05:26:37;98994.06;;;26.89;36.65
54407;BME280;40313;50.308;30.374;2024-03-23T05:29:04;98995.50;;;26.85;37.02
54407;BME280;40313;50.308;30.374;2024-03-23T05:31:31;98991.78;;;26.99;36.69
54407;BME280;40313;50.308;30.374;2024-03-23T05:33:57;98991.53;;;27.21;36.64
54407;BME280;40313;50.308;30.374;2024-03-23T05:36:23;98994.66;;;27.11;36.36
54407;BME280;40313;50.308;30.374;2024-03-23T05:38:50;98995.47;;;27.12;36.49
54407;BME280;40313;50.308;30.374;2024-03-23T05:41:16;98986.72;;;27.50;36.20
54407;BME280;40313;50.308;30.374;2024-03-23T05:43:42;98988.88;;;27.66;36.47
54407;BME280;40313;50.308;30.374;2024-03-23T05:46:08;98991.66;;;27.53;36.04
54407;BME280;40313;50.308;30.374;2024-03-23T05:48:36;98986.94;;;27.48;36.19
54407;BME280;40313;50.308;30.374;2024-03-23T05:51:02;98994.44;;;27.71;36.10
54407;BME280;40313;50.308;30.374;2024-03-23T05:53:29;98985.03;;;27.94;36.07
54407;BME280;40313;50.308;30.374;2024-03-23T05:56:01;98992.38;;;28.37;35.82
54407;BME280;40313;50.308;30.374;2024-03-23T05:58:29;98992.88;;;28.53;35.03
54407;BME280;40313;50.308;30.374;2024-03-23T06:00:57;99003.34;;;28.61;35.35
54407;BME280;40313;50.308;30.374;2024-03-23T06:03:23;98993.50;;;28.30;35.48
54407;BME280;40313;50.308;30.374;2024-03-23T06:05:50;98998.00;;;28.29;35.37
54407;BME280;40313;50.308;30.374;2024-03-23T06:08:18;98999.19;;;28.65;35.30
54407;BME280;40313;50.308;30.374;2024-03-23T06:10:43;98996.16;;;28.55;35.53
54407;BME280;40313;50.308;30.374;2024-03-23T06:13:11;98989.16;;;28.54;35.46
54407;BME280;40313;50.308;30.374;2024-03-23T06:15:38;98990.03;;;28.48;35.50
54407;BME280;40313;50.308;30.374;2024-03-23T06:18:04;98987.97;;;28.50;35.30
54407;BME280;40313;50.308;30.374;2024-03-23T06:20:32;99000.94;;;28.53;35.32
54407;BME280;40313;50.308;30.374;2024-03-23T06:23:00;98991.63;;;28.55;35.50
54407;BME280;40313;50.308;30.374;2024-03-23T06:25:26;98994.75;;;28.27;35.46
54407;BME280;40313;50.308;30.374;2024-03-23T06:27:51;98993.47;;;28.55;35.66
54407;BME280;40313;50.308;30.374;2024-03-23T06:30:18;98991.66;;;27.98;36.26
54407;BME280;40313;50.308;30.374;2024-03-23T06:32:43;98991.09;;;28.47;36.02
54407;BME280;40313;50.308;30.374;2024-03-23T06:35:10;98996.47;;;28.47;35.70
54407;BME280;40313;50.308;30.374;2024-03-23T06:37:36;98988.63;;;28.70;35.40
54407;BME280;40313;50.308;30.374;2024-03-23T06:40:07;98994.66;;;28.66;35.58
54407;BME280;40313;50.308;30.374;2024-03-23T06:42:35;98984.75;;;28.66;35.52
54407;BME280;40313;50.308;30.374;2024-03-23T06:45:01;98998.41;;;28.58;35.56
54407;BME280;40313;50.308;30.374;2024-03-23T06:47:27;98988.91;;;28.62;35.80
54407;BME280;40313;50.308;30.374;2024-03-23T06:49:53;98991.00;;;29.04;35.32
54407;BME280;40313;50.308;30.374;2024-03-23T06:52:19;98994.03;;;28.38;35.85
54407;BME280;40313;50.308;30.374;2024-03-23T06:54:45;98991.88;;;28.98;35.24
54407;BME280;40313;50.308;30.374;2024-03-23T06:57:12;98989.09;;;28.86;35.11
54407;BME280;40313;50.308;30.374;2024-03-23T06:59:38;98978.94;;;28.69;35.57
54407;BME280;40313;50.308;30.374;2024-03-23T07:02:04;98974.75;;;28.73;35.51
54407;BME280;40313;50.308;30.374;2024-03-23T07:04:33;98976.41;;;28.74;35.75
54407;BME280;40313;50.308;30.374;2024-03-23T07:06:59;98982.88;;;28.41;35.78
54407;BME280;40313;50.308;30.374;2024-03-23T07:09:27;98972.25;;;28.78;35.89
54407;BME280;40313;50.308;30.374;2024-03-23T07:11:53;98972.19;;;28.60;35.67
54407;BME280;40313;50.308;30.374;2024-03-23T07:14:21;98971.28;;;28.91;35.67
54407;BME280;40313;50.308;30.374;2024-03-23T07:16:47;98972.06;;;28.73;35.44
54407;BME280;40313;50.308;30.374;2024-03-23T07:19:14;98968.81;;;28.90;35.60
54407;BME280;40313;50.308;30.374;2024-03-23T07:21:41;98970.47;;;28.91;35.64
54407;BME280;40313;50.308;30.374;2024-03-23T07:24:08;98968.59;;;28.73;35.39
54407;BME280;40313;50.308;30.374;2024-03-23T07:26:33;98969.63;;;28.90;35.74
54407;BME280;40313;50.308;30.374;2024-03-23T07:29:00;98962.13;;;28.55;35.82
54407;BME280;40313;50.308;30.374;2024-03-23T07:31:27;98967.38;;;28.69;35.70
54407;BME280;40313;50.308;30.374;2024-03-23T07:33:53;98968.69;;;29.03;35.58
54407;BME280;40313;50.308;30.374;2024-03-23T07:36:19;98965.88;;;29.35;35.22
54407;BME280;40313;50.308;30.374;2024-03-23T07:38:46;98971.34;;;29.22;35.33
54407;BME280;40313;50.308;30.374;2024-03-23T07:41:15;98957.91;;;28.85;35.69
54407;BME280;40313;50.308;30.374;2024-03-23T07:43:42;98967.41;;;29.06;35.63
54407;BME280;40313;50.308;30.374;2024-03-23T07:46:08;98962.72;;;29.01;35.82
54407;BME280;40313;50.308;30.374;2024-03-23T07:48:37;98968.16;;;29.50;35.64
54407;BME280;40313;50.308;30.374;2024-03-23T07:51:04;98973.63;;;29.74;35.30
54407;BME280;40313;50.308;30.374;2024-03-23T07:53:31;98967.94;;;30.24;34.86
54407;BME280;40313;50.308;30.374;2024-03-23T07:55:58;98964.31;;;30.19;34.76
54407;BME280;40313;50.308;30.374;2024-03-23T07:58:26;98961.84;;;30.17;34.79
54407;BME280;40313;50.308;30.374;2024-03-23T08:00:52;98963.66;;;30.59;34.62
54407;BME280;40313;50.308;30.374;2024-03-23T08:03:18;98954.38;;;30.31;34.68
54407;BME280;40313;50.308;30.374;2024-03-23T08:05:46;98951.22;;;30.34;34.99
54407;BME280;40313;50.308;30.374;2024-03-23T08:08:13;98954.50;;;31.07;34.37
54407;BME280;40313;50.308;30.374;2024-03-23T08:10:47;98957.25;;;31.77;33.57
54407;BME280;40313;50.308;30.374;2024-03-23T08:13:13;98958.50;;;32.03;33.37
54407;BME280;40313;50.308;30.374;2024-03-23T08:15:39;98943.88;;;32.50;33.13
54407;BME280;40313;50.308;30.374;2024-03-23T08:18:06;98942.38;;;32.08;33.21
54407;BME280;40313;50.308;30.374;2024-03-23T08:20:31;98935.25;;;32.02;33.68
54407;BME280;40313;50.308;30.374;2024-03-23T08:22:59;98935.03;;;32.37;33.42
54407;BME280;40313;50.308;30.374;2024-03-23T08:25:25;98937.44;;;31.88;33.10
54407;BME280;40313;50.308;30.374;2024-03-23T08:27:52;98940.59;;;32.31;32.54
54407;BME280;40313;50.308;30.374;2024-03-23T08:30:17;98930.88;;;32.30;32.95
54407;BME280;40313;50.308;30.374;2024-03-23T08:32:44;98932.44;;;32.26;32.93
54407;BME280;40313;50.308;30.374;2024-03-23T08:35:09;98926.38;;;32.35;33.29
54407;BME280;40313;50.308;30.374;2024-03-23T08:37:36;98919.00;;;32.31;33.35
54407;BME280;40313;50.308;30.374;2024-03-23T08:40:03;98923.00;;;32.45;32.86
54407;BME280;40313;50.308;30.374;2024-03-23T08:42:30;98921.25;;;32.17;32.97
54407;BME280;40313;50.308;30.374;2024-03-23T08:44:55;98906.56;;;31.79;33.74
54407;BME280;40313;50.308;30.374;2024-03-23T08:47:22;98914.09;;;32.84;33.22
54407;BME280;40313;50.308;30.374;2024-03-23T08:49:47;98914.31;;;33.21;32.77
54407;BME280;40313;50.308;30.374;2024-03-23T08:52:14;98920.41;;;33.12;32.94
54407;BME280;40313;50.308;30.374;2024-03-23T08:54:40;98916.94;;;32.94;32.48
54407;BME280;40313;50.308;30.374;2024-03-23T08:57:08;98912.34;;;32.95;32.80
54407;BME280;40313;50.308;30.374;2024-03-23T08:59:34;98903.97;;;32.35;32.91
54407;BME280;40313;50.308;30.374;2024-03-23T09:02:00;98898.59;;;33.18;32.47
54407;BME280;40313;50.308;30.374;2024-03-23T09:04:26;98895.50;;;34.24;32.07
54407;BME280;40313;50.308;30.374;2024-03-23T09:06:53;98899.59;;;34.26;32.11
54407;BME280;40313;50.308;30.374;2024-03-23T09:09:18;98900.63;;;34.20;31.52
54407;BME280;40313;50.308;30.374;2024-03-23T09:11:45;98896.44;;;34.83;31.58
54407;BME280;40313;50.308;30.374;2024-03-23T09:14:12;98900.03;;;34.99;31.43
54407;BME280;40313;50.308;30.374;2024-03-23T09:16:38;98887.56;;;34.98;30.57
54407;BME280;40313;50.308;30.374;2024-03-23T09:19:04;98881.56;;;34.90;30.94
54407;BME280;40313;50.308;30.374;2024-03-23T09:21:30;98877.50;;;34.98;31.47
54407;BME280;40313;50.308;30.374;2024-03-23T09:23:56;98871.34;;;35.18;31.50
54407;BME280;40313;50.308;30.374;2024-03-23T09:26:22;98867.78;;;35.02;31.49
54407;BME280;40313;50.308;30.374;2024-03-23T09:28:48;98868.16;;;35.32;30.68
54407;BME280;40313;50.308;30.374;2024-03-23T09:31:17;98869.09;;;34.89;30.95
54407;BME280;40313;50.308;30.374;2024-03-23T09:33:42;98871.47;;;34.75;30.90
54407;BME280;40313;50.308;30.374;2024-03-23T09:36:09;98874.63;;;34.62;30.91
54407;BME280;40313;50.308;30.374;2024-03-23T09:38:34;98870.56;;;34.59;31.36
54407;BME280;40313;50.308;30.374;2024-03-23T09:41:06;98862.91;;;34.46;31.43
54407;BME280;40313;50.308;30.374;2024-03-23T09:43:32;98860.22;;;34.46;31.18
54407;BME280;40313;50.308;30.374;2024-03-23T09:45:59;98857.91;;;34.75;31.30
54407;BME280;40313;50.308;30.374;2024-03-23T09:48:26;98856.72;;;35.14;31.62
54407;BME280;40313;50.308;30.374;2024-03-23T09:50:52;98850.75;;;35.17;31.16
54407;BME280;40313;50.308;30.374;2024-03-23T09:53:18;98843.09;;;34.93;30.87
54407;BME280;40313;50.308;30.374;2024-03-23T09:55:45;98847.44;;;34.94;31.13
54407;BME280;40313;50.308;30.374;2024-03-23T09:58:12;98841.06;;;35.47;30.72
54407;BME280;40313;50.308;30.374;2024-03-23T10:00:39;98844.28;;;35.44;30.49
54407;BME280;40313;50.308;30.374;2024-03-23T10:03:05;98842.59;;;35.12;30.60
54407;BME280;40313;50.308;30.374;2024-03-23T10:05:33;98835.06;;;35.29;30.61
54407;BME280;40313;50.308;30.374;2024-03-23T10:07:59;98831.78;;;35.27;31.10
54407;BME280;40313;50.308;30.374;2024-03-23T10:10:26;98831.72;;;35.07;31.16
54407;BME280;40313;50.308;30.374;2024-03-23T10:12:52;98824.97;;;35.15;31.57
54407;BME280;40313;50.308;30.374;2024-03-23T10:15:21;98823.88;;;35.10;30.74
54407;BME280;40313;50.308;30.374;2024-03-23T10:17:47;98827.13;;;35.12;30.75
54407;BME280;40313;50.308;30.374;2024-03-23T10:20:19;98830.13;;;35.16;31.53
54407;BME280;40313;50.308;30.374;2024-03-23T10:22:46;98817.44;;;35.32;31.28
54407;BME280;40313;50.308;30.374;2024-03-23T10:25:13;98817.41;;;35.27;31.73
54407;BME280;40313;50.308;30.374;2024-03-23T10:27:39;98815.84;;;35.41;31.50
54407;BME280;40313;50.308;30.374;2024-03-23T10:30:09;98801.09;;;34.96;31.13
54407;BME280;40313;50.308;30.374;2024-03-23T10:32:35;98803.31;;;35.20;31.25
54407;BME280;40313;50.308;30.374;2024-03-23T10:35:15;98802.47;;;35.09;30.81
54407;BME280;40313;50.308;30.374;2024-03-23T10:37:41;98805.22;;;35.29;30.96
54407;BME280;40313;50.308;30.374;2024-03-23T10:40:12;98797.09;;;35.71;30.70
54407;BME280;40313;50.308;30.374;2024-03-23T10:42:38;98793.00;;;35.17;30.96
54407;BME280;40313;50.308;30.374;2024-03-23T10:45:06;98792.19;;;35.16;30.53
54407;BME280;40313;50.308;30.374;2024-03-23T10:47:34;98783.56;;;35.66;30.96
54407;BME280;40313;50.308;30.374;2024-03-23T10:50:01;98782.44;;;35.51;30.82
54407;BME280;40313;50.308;30.374;2024-03-23T10:52:27;98775.91;;;35.78;31.10
54407;BME280;40313;50.308;30.374;2024-03-23T10:54:55;98771.31;;;35.68;30.46
54407;BME280;40313;50.308;30.374;2024-03-23T10:57:27;98775.41;;;35.91;30.74
54407;BME280;40313;50.308;30.374;2024-03-23T10:59:56;98766.19;;;35.51;30.73
54407;BME280;40313;50.308;30.374;2024-03-23T11:02:23;98763.97;;;35.74;30.96
54407;BME280;40313;50.308;30.374;2024-03-23T11:04:51;98764.00;;;35.48;30.73
54407;BME280;40313;50.308;30.374;2024-03-23T11:07:30;98761.28;;;35.27;31.17
54407;BME280;40313;50.308;30.374;2024-03-23T11:09:58;98756.94;;;35.78;30.95
54407;BME280;40313;50.308;30.374;2024-03-23T11:12:31;98749.66;;;35.37;31.09
54407;BME280;40313;50.308;30.374;2024-03-23T11:15:01;98746.06;;;35.98;30.86
54407;BME280;40313;50.308;30.374;2024-03-23T11:17:27;98745.53;;;35.86;30.65
54407;BME280;40313;50.308;30.374;2024-03-23T11:19:55;98746.88;;;35.94;30.53
54407;BME280;40313;50.308;30.374;2024-03-23T11:22:41;98746.63;;;35.85;30.07
54407;BME280;40313;50.308;30.374;2024-03-23T11:25:15;98732.56;;;35.37;30.79
54407;BME280;40313;50.308;30.374;2024-03-23T11:27:43;98741.19;;;34.98;30.18
54407;BME280;40313;50.308;30.374;2024-03-23T11:30:14;98735.53;;;35.35;30.65
54407;BME280;40313;50.308;30.374;2024-03-23T11:32:41;98728.47;;;35.24;30.67
54407;BME280;40313;50.308;30.374;2024-03-23T11:35:08;98739.06;;;35.41;30.55
54407;BME280;40313;50.308;30.374;2024-03-23T11:37:35;98722.22;;;35.18;30.47
54407;BME280;40313;50.308;30.374;2024-03-23T11:40:16;98726.84;;;35.28;30.23
54407;BME280;40313;50.308;30.374;2024-03-23T11:42:43;98720.06;;;34.84;30.16
54407;BME280;40313;50.308;30.374;2024-03-23T11:45:11;98716.44;;;34.53;30.68
54407;BME280;40313;50.308;30.374;2024-03-23T11:47:37;98718.16;;;34.90;30.07
54407;BME280;40313;50.308;30.374;2024-03-23T11:50:04;98718.44;;;34.88;30.79
54407;BME280;40313;50.308;30.374;2024-03-23T11:52:29;98713.03;;;35.29;30.66
54407;BME280;40313;50.308;30.374;2024-03-23T11:55:03;98698.91;;;35.22;30.49
54407;BME280;40313;50.308;30.374;2024-03-23T11:57:29;98693.22;;;35.29;30.31
54407;BME280;40313;50.308;30.374;2024-03-23T11:59:57;98698.41;;;35.10;30.88
54407;BME280;40313;50.308;30.374;2024-03-23T12:02:23;98695.69;;;35.10;30.57
54407;BME280;40313;50.308;30.374;2024-03-23T12:04:49;98698.31;;;34.74;30.36
54407;BME280;40313;50.308;30.374;2024-03-23T12:07:16;98695.63;;;34.69;30.80
54407;BME280;40313;50.308;30.374;2024-03-23T12:09:44;98697.50;;;34.73;30.35
54407;BME280;40313;50.308;30.374;2024-03-23T12:12:13;98687.00;;;34.98;30.73
54407;BME280;40313;50.308;30.374;2024-03-23T12:14:41;98687.56;;;34.10;30.97
54407;BME280;40313;50.308;30.374;2024-03-23T12:17:09;98682.84;;;33.85;31.12
54407;BME280;40313;50.308;30.374;2024-03-23T12:19:36;98683.63;;;34.39;30.67
54407;BME280;40313;50.308;30.374;2024-03-23T12:22:03;98687.41;;;33.80;31.17
54407;BME280;40313;50.308;30.374;2024-03-23T12:24:29;98684.13;;;34.31;31.28
54407;BME280;40313;50.308;30.374;2024-03-23T12:26:55;98680.75;;;33.98;31.04
54407;BME280;40313;50.308;30.374;2024-03-23T12:29:27;98667.41;;;32.73;32.06
54407;BME280;40313;50.308;30.374;2024-03-23T12:31:52;98671.13;;;32.99;31.72
54407;BME280;40313;50.308;30.374;2024-03-23T12:34:20;98664.00;;;33.58;31.71
54407;BME280;40313;50.308;30.374;2024-03-23T12:36:46;98667.63;;;33.31;31.88
54407;BME280;40313;50.308;30.374;2024-03-23T12:39:12;98661.66;;;33.72;31.70
54407;BME280;40313;50.308;30.374;2024-03-23T12:41:37;98654.72;;;33.38;32.00
54407;BME280;40313;50.308;30.374;2024-03-23T12:44:04;98652.41;;;33.63;31.39
54407;BME280;40313;50.308;30.374;2024-03-23T12:46:30;98646.47;;;33.66;32.10
54407;BME280;40313;50.308;30.374;2024-03-23T12:48:56;98649.72;;;33.63;32.00
54407;BME280;40313;50.308;30.374;2024-03-23T12:51:24;98646.38;;;33.98;31.83
54407;BME280;40313;50.308;30.374;2024-03-23T12:53:51;98643.41;;;33.95;31.53
54407;BME280;40313;50.308;30.374;2024-03-23T12:56:16;98638.22;;;33.88;31.14
54407;BME280;40313;50.308;30.374;2024-03-23T12:58:43;98631.69;;;33.79;31.61
54407;BME280;40313;50.308;30.374;2024-03-23T13:01:09;98639.59;;;33.90;31.45
54407;BME280;40313;50.308;30.374;2024-03-23T13:03:35;98642.91;;;34.13;31.13
54407;BME280;40313;50.308;30.374;2024-03-23T13:06:01;98651.41;;;33.74;31.60
54407;BME280;40313;50.308;30.374;2024-03-23T13:08:34;98636.44;;;34.14;31.21
54407;BME280;40313;50.308;30.374;2024-03-23T13:10:59;98630.78;;;34.26;31.27
54407;BME280;40313;50.308;30.374;2024-03-23T13:13:26;98637.09;;;34.57;31.10
54407;BME280;40313;50.308;30.374;2024-03-23T13:15:51;98633.88;;;34.81;31.20
54407;BME280;40313;50.308;30.374;2024-03-23T13:18:18;98625.81;;;34.02;31.26
54407;BME280;40313;50.308;30.374;2024-03-23T13:20:44;98634.13;;;33.85;31.13
54407;BME280;40313;50.308;30.374;2024-03-23T13:23:10;98625.28;;;34.00;31.72
54407;BME280;40313;50.308;30.374;2024-03-23T13:25:37;98624.16;;;33.91;31.28
54407;BME280;40313;50.308;30.374;2024-03-23T13:28:04;98621.16;;;33.82;31.26
54407;BME280;40313;50.308;30.374;2024-03-23T13:30:30;98618.47;;;33.92;31.16
54407;BME280;40313;50.308;30.374;2024-03-23T13:32:56;98615.53;;;33.94;31.22
54407;BME280;40313;50.308;30.374;2024-03-23T13:35:22;98619.50;;;33.76;31.33
54407;BME280;40313;50.308;30.374;2024-03-23T13:37:49;98619.50;;;32.96;31.75
54407;BME280;40313;50.308;30.374;2024-03-23T13:40:15;98621.91;;;33.24;31.51